Relevés horaires Beauvechain (Belgique)


Relevés horaires à Beauvechain - Dimanche 19 Mars 2017
Heure UTC1 Température [°C] Vent [km/h] Hum. [%] Pres.4 [hPa] Visi. [Km] Nébu. [octa] Préc.5 [mm] Cond.
2m. Res. Ros. Dir.2 Vit. Moy. Raf.3
23:00 10.4 8.7 5.9 SO 13.0 -- 22.2 74 1011(0.1/3h) 20 -- -- --
22:00 10.3 8.1 6.0 OSO 16.7 -- 24.1 75 1011.2(0.4/3h) 20 -- -- --
21:00 10.6 8.7 6.0 OSO 14.8 -- 24.1 73 1010.8(0.5/3h) 20 -- -- --
20:00 11.0 9.2 6.3 OSO 14.8 -- 24.1 73 1010.7(0.4/3h) 20 -- -- --
19:00 11.1 9.3 6.1 OSO 14.8 -- 24.1 71 1010.7(0.3/3h) 20 -- -- --
18:00 11.1 9.3 6.2 OSO 14.8 -- 31.5 72 1010.3(0.3/3h) 20 -- -- --
17:00 11.3 9.3 6.0 OSO 16.7 -- 31.5 70 1010.3(0.0/3h) 20 -- -- --
16:00 11.6 9.5 6.7 OSO 18.5 -- 29.6 72 1010.2(-0.1/3h) 20 -- -- --
15:00 12.1 10.2 6.8 OSO 18.5 -- 29.6 70 1010(-1.1/3h) 20 -- -- --
14:00 11.9 9.9 6.6 OSO 18.5 -- 27.8 70 1010.2(-0.7/3h) 20 -- -- --
13:00 11.5 9.8 7.5 OSO 14.8 -- 25.9 76 1010.2(-0.9/3h) 20 -- -- --
12:00 11.1 9.1 7.8 OSO 16.7 -- 27.8 80 1011.2(-0.1/3h) 20 -- -- --
11:00 11.1 8.9 9.2 OSO 18.5 -- 27.8 88 1010.8(-0.4/3h) 20 -- -- --
10:00 10.8 8.7 9.4 OSO 16.7 -- 24.1 91 1011.2(0.0/3h) 18 -- -- --
09:00 10.3 8.1 9.3 SO 16.7 -- 24.1 94 1011.2(-0.1/3h) 20 -- -- --
08:00 10.1 8.1 9.3 OSO 14.8 -- 22.2 95 1011.3(0.0/3h) 8 -- -- --
07:00 9.8 7.7 9.3 SO 14.8 -- 22.2 97 1011.3(-0.1/3h) 6 -- -- --
06:00 9.8 8.2 9.4 OSO 11.1 -- 22.2 97 1011.3(0.0/3h) 6 -- 0.4/12h
NA
05:00 10.1 8.3 9.5 OSO 13.0 -- 18.5 96 1011.2(-0.5/3h) 7 -- -- --
04:00 10.1 8.6 9.5 OSO 11.1 -- 22.2 96 1011.5(-0.7/3h) 13 -- -- --
03:00 10.1 8.3 9.6 OSO 13.0 -- 20.4 97 1011.2(-0.7/3h) 11 -- -- NA
02:00 10.1 8.3 9.7 OSO 13.0 -- 20.4 97 1011.8(-0.3/3h) 6 -- -- --
01:00 10.2 8.7 9.9 OSO 11.1 -- 16.7 98 1012.2(-0.1/3h) 7 -- -- --
00:00 10.3 8.8 9.9 OSO 11.1 -- 18.5 97 1012.1(0.0/3h) 5 -- 0.4/6h
Du brouillard ou du brouillard glacé (plus correctement designé sous le nom de brume) est observé et la visibilité n'est ni inférieure à 5/8 de mille ni supérieure à 6 milles

1 Coordinated Universal Time. Actuellement il est 12:00 locale et 11:00 UTC.

2 Le vent souffle depuis la direction indiquée vers la direction oposée.

3 Les rafales max. sont disponible 40 min après l'heure du relevé.

4 Pour les stations d'altitude (plus de 600m) le géopotentiel du niveau le plus proche de la pression obligatoire est indiqué.

5 Les stations disposant d'un diffuseur peuvent indiquer "trace". Cela signifie que des précipitations ont touchés le sol mais que la quantité est inférieure à 0.1 mm.

Récapitulatif de la journée
Température [°C] Vent [km/h] Ensoleillement4 [h] Precipitations totale5 [mm] Pression [Hpa]
Min1 Max.2 Moy.3 Max. Min Max.
9.8 12.4 0 31.5 0 h 0 min 0 1010.0 1012.2

1 Température minimale relevée entre 18:00 UTC la veille et 18:00 UTC le jour donné.

2 Température maximale relevée entre 06:00 UTC le jour donné et 06:00 UTC le lendemain.

3 Vent moyen de la journée basé sur les relevés horaires.

4 Ensoleillement en heures relevé entre 06:00 UTC la veille et 06:00 UTC le jour donné.

5 Précipitations totales tombées entre 06:00 UTC la jour donné et 06:00 UTC le lendemain.

Graphiques horaires